Time;durP1;ratioP1;P1;durP2;ratioP2;P2;SDS_P1;SDS_P2;PMS_P1;PMS_P2;Temp;Humidity;BMP_temperature;BMP_pressure;BME280_temperature;BME280_humidity;BME280_pressure;Samples;Min_cycle;Max_cycle;Signal;HPM_P1;HPM_P2
2021/03/19 00:02:24;;;;;;;32.17;15.07;;;4.00;99.90;;;;;;5012472;28;20029;-67
2021/03/19 00:04:51;;;;;;;32.30;14.93;;;3.90;99.90;;;;;;5012127;28;20088;-67
2021/03/19 00:07:17;;;;;;;31.27;15.07;;;3.80;99.90;;;;;;4994753;28;20030;-66
2021/03/19 00:09:43;;;;;;;30.13;14.40;;;3.80;99.90;;;;;;5012309;28;20471;-67
2021/03/19 00:12:09;;;;;;;28.00;14.25;;;3.70;99.90;;;;;;5011906;28;20398;-66
2021/03/19 00:14:35;;;;;;;30.48;13.32;;;3.80;99.90;;;;;;5012346;28;20026;-66
2021/03/19 00:17:02;;;;;;;33.67;14.45;;;3.90;99.90;;;;;;4994523;28;20032;-67
2021/03/19 00:19:28;;;;;;;28.02;12.75;;;3.80;99.90;;;;;;5012225;28;20037;-67
2021/03/19 00:21:53;;;;;;;26.17;12.65;;;3.80;99.90;;;;;;5022516;28;20029;-67
2021/03/19 00:24:19;;;;;;;31.88;13.73;;;3.80;99.90;;;;;;5035700;28;20056;-67
2021/03/19 00:26:45;;;;;;;26.60;12.20;;;3.80;99.90;;;;;;5017862;28;20099;-67
2021/03/19 00:29:11;;;;;;;28.27;13.10;;;3.80;99.90;;;;;;5035662;28;20068;-67
2021/03/19 00:31:37;;;;;;;33.72;13.25;;;3.80;99.90;;;;;;5017844;28;20025;-67
2021/03/19 00:34:03;;;;;;;35.53;13.20;;;3.80;99.90;;;;;;5035393;28;20037;-67
2021/03/19 00:36:28;;;;;;;28.00;12.07;;;3.80;99.90;;;;;;5017368;28;20050;-66
2021/03/19 00:38:54;;;;;;;28.83;11.98;;;3.60;99.90;;;;;;5017150;28;20041;-66
2021/03/19 00:41:21;;;;;;;33.88;13.35;;;3.50;99.90;;;;;;5017796;28;20155;-67
2021/03/19 00:43:47;;;;;;;26.85;11.73;;;3.60;99.90;;;;;;4989376;28;20066;-66
2021/03/19 00:46:13;;;;;;;30.35;11.75;;;3.60;99.90;;;;;;4996019;28;20652;-66
2021/03/19 00:48:39;;;;;;;29.13;12.60;;;3.60;99.90;;;;;;4995936;28;20038;-66
2021/03/19 00:51:05;;;;;;;31.90;11.57;;;3.60;99.90;;;;;;4978606;28;20042;-66
2021/03/19 00:53:31;;;;;;;31.50;12.50;;;3.60;99.90;;;;;;4995624;28;20111;-66
2021/03/19 00:55:57;;;;;;;31.75;12.95;;;3.50;99.90;;;;;;4995716;28;20154;-67
2021/03/19 00:58:23;;;;;;;27.58;12.27;;;3.40;99.90;;;;;;4995657;28;20384;-67
2021/03/19 01:00:49;;;;;;;31.80;11.40;;;3.40;99.90;;;;;;4995158;28;20041;-67
2021/03/19 01:03:14;;;;;;;29.17;13.25;;;3.50;99.90;;;;;;4995781;28;20027;-66
2021/03/19 01:05:43;;;;;;;27.38;12.57;;;3.40;99.90;;;;;;4995515;28;20058;-66
2021/03/19 01:08:12;;;;;;;28.17;12.85;;;3.40;99.90;;;;;;4978347;28;20113;-66
2021/03/19 01:10:52;;;;;;;27.75;12.73;;;3.50;99.90;;;;;;4978106;28;20073;-66
2021/03/19 01:13:18;;;;;;;26.63;12.10;;;3.40;99.90;;;;;;5014519;28;20044;-66
2021/03/19 01:15:44;;;;;;;25.20;11.13;;;3.40;99.90;;;;;;5017021;28;20034;-66
2021/03/19 01:18:15;;;;;;;27.30;12.70;;;3.40;99.90;;;;;;5017167;28;20134;-66
2021/03/19 01:20:43;;;;;;;28.40;13.38;;;3.50;99.90;;;;;;5034827;28;20067;-66
2021/03/19 01:23:11;;;;;;;27.60;12.23;;;3.40;99.90;;;;;;5034364;28;20117;-67
2021/03/19 01:25:37;;;;;;;31.25;12.90;;;3.40;99.90;;;;;;5000433;28;20458;-67
2021/03/19 01:28:03;;;;;;;27.42;11.80;;;3.30;99.90;;;;;;5034393;28;20048;-67
2021/03/19 01:30:34;;;;;;;29.40;12.68;;;3.40;99.90;;;;;;5016473;28;20026;-67
2021/03/19 01:33:00;;;;;;;24.10;11.07;;;3.50;99.90;;;;;;5016159;28;20036;-67
2021/03/19 01:35:30;;;;;;;30.10;11.82;;;3.50;99.90;;;;;;5033188;28;20041;-66
2021/03/19 01:37:55;;;;;;;28.08;11.48;;;3.40;99.90;;;;;;5016535;28;20092;-67
2021/03/19 01:40:29;;;;;;;28.58;10.40;;;3.40;99.90;;;;;;5034377;28;20037;-67
2021/03/19 01:43:04;;;;;;;29.13;10.73;;;3.40;99.90;;;;;;5027395;28;20061;-66
2021/03/19 01:46:22;;;;;;;24.40;11.07;;;3.40;99.90;;;;;;5014542;28;20037;-66
2021/03/19 01:49:44;;;;;;;26.65;12.05;;;3.40;99.90;;;;;;5014404;28;20038;-66
2021/03/19 01:53:06;;;;;;;25.17;11.13;;;3.40;99.90;;;;;;5014465;28;20046;-67
2021/03/19 01:56:28;;;;;;;24.13;10.43;;;3.40;99.90;;;;;;4996841;28;20061;-67
2021/03/19 01:59:50;;;;;;;29.00;11.88;;;3.30;99.90;;;;;;5013710;28;20037;-67
2021/03/19 02:03:12;;;;;;;22.33;10.30;;;3.30;99.90;;;;;;4996258;28;20042;-67
2021/03/19 02:06:33;;;;;;;29.13;11.43;;;3.30;99.90;;;;;;5013934;28;20538;-67
2021/03/19 02:09:55;;;;;;;25.00;11.75;;;3.30;99.90;;;;;;5013683;28;20117;-67
2021/03/19 02:13:16;;;;;;;32.40;12.50;;;3.30;99.90;;;;;;5015875;28;20128;-67
2021/03/19 02:16:38;;;;;;;30.63;12.75;;;3.30;99.90;;;;;;5033676;28;20542;-67
2021/03/19 02:19:41;;;;;;;;;;;3.30;99.90;;;;;;5033908;28;20048;-67
2021/03/19 02:23:03;;;;;;;28.42;11.70;;;3.30;99.90;;;;;;5032985;28;20310;-67
2021/03/19 02:26:25;;;;;;;24.02;11.43;;;3.20;99.90;;;;;;5033151;28;20056;-67
2021/03/19 02:29:28;;;;;;;;;;;3.30;99.90;;;;;;5033550;28;20043;-67
2021/03/19 02:32:13;;;;;;;27.67;13.52;;;3.20;99.90;;;;;;5033196;28;19920;-66
2021/03/19 02:34:58;;;;;;;28.52;13.10;;;3.10;99.90;;;;;;5016447;28;20124;-67
2021/03/19 02:37:32;;;;;;;27.45;12.27;;;3.10;99.90;;;;;;5032701;28;20056;-66
2021/03/19 02:39:58;;;;;;;24.52;12.70;;;2.90;99.90;;;;;;5033191;28;20136;-67
2021/03/19 02:42:29;;;;;;;32.42;14.00;;;2.90;99.90;;;;;;5030187;28;20439;-66
2021/03/19 02:44:56;;;;;;;33.00;14.63;;;2.90;99.90;;;;;;5012716;28;20038;-67
2021/03/19 02:47:22;;;;;;;28.13;13.73;;;2.90;99.90;;;;;;5013133;28;20060;-67
2021/03/19 02:49:49;;;;;;;31.13;14.63;;;2.80;99.90;;;;;;5013145;28;20030;-67
2021/03/19 02:52:17;;;;;;;30.42;13.30;;;2.70;99.90;;;;;;4995831;28;20037;-67
2021/03/19 02:54:43;;;;;;;31.75;14.38;;;2.70;99.90;;;;;;4995978;28;20605;-67
2021/03/19 02:57:09;;;;;;;30.27;12.90;;;2.60;99.90;;;;;;4995695;28;20041;-67
2021/03/19 02:59:34;;;;;;;29.40;12.43;;;2.60;99.90;;;;;;5012725;28;20557;-66
2021/03/19 03:02:00;;;;;;;28.63;12.90;;;2.70;99.90;;;;;;5012965;28;20049;-67
2021/03/19 03:04:26;;;;;;;30.48;13.32;;;2.70;99.90;;;;;;4995501;28;20383;-67
2021/03/19 03:06:56;;;;;;;36.50;13.55;;;2.60;99.90;;;;;;5012958;28;20025;-67
2021/03/19 03:09:31;;;;;;;31.92;12.93;;;2.60;99.90;;;;;;4995590;28;20046;-67
2021/03/19 03:11:58;;;;;;;36.55;14.35;;;2.60;99.90;;;;;;5012749;28;20029;-67
2021/03/19 03:14:27;;;;;;;38.38;15.75;;;2.60;99.90;;;;;;5013931;28;20033;-66
2021/03/19 03:16:58;;;;;;;43.35;16.42;;;2.70;99.90;;;;;;5032503;28;20075;-67
2021/03/19 03:19:24;;;;;;;35.37;15.90;;;2.60;99.90;;;;;;5015027;28;20383;-67
2021/03/19 03:21:52;;;;;;;35.88;14.18;;;2.70;99.90;;;;;;5032625;28;20328;-67
2021/03/19 03:24:19;;;;;;;36.30;15.52;;;2.70;99.90;;;;;;5014891;28;20083;-67
2021/03/19 03:26:44;;;;;;;34.03;15.77;;;2.70;99.90;;;;;;5032600;28;20030;-67
2021/03/19 03:29:12;;;;;;;36.88;13.82;;;2.80;99.90;;;;;;5032203;28;20185;-67
2021/03/19 03:31:39;;;;;;;38.05;15.55;;;2.70;99.90;;;;;;5014891;28;20026;-67
2021/03/19 03:34:07;;;;;;;33.90;15.38;;;2.70;99.90;;;;;;5031948;28;20044;-67
2021/03/19 03:36:33;;;;;;;36.67;16.10;;;2.70;99.90;;;;;;5031979;28;20045;-67
2021/03/19 03:39:02;;;;;;;40.20;15.65;;;2.70;99.90;;;;;;5014689;28;20064;-67
2021/03/19 03:41:28;;;;;;;37.42;15.27;;;2.80;99.90;;;;;;5014987;28;20025;-67
2021/03/19 03:43:55;;;;;;;34.58;14.00;;;2.70;99.90;;;;;;5032132;28;20466;-67
2021/03/19 03:46:24;;;;;;;35.03;14.15;;;2.70;99.90;;;;;;5032377;28;20107;-67
2021/03/19 03:48:51;;;;;;;42.72;15.73;;;2.60;99.90;;;;;;5014637;28;20033;-67
2021/03/19 03:51:17;;;;;;;35.97;14.82;;;2.60;99.90;;;;;;5031980;28;20034;-67
2021/03/19 03:53:43;;;;;;;44.20;16.17;;;2.70;99.90;;;;;;5014310;28;20080;-67
2021/03/19 03:56:13;;;;;;;42.40;15.90;;;2.70;99.90;;;;;;5032124;28;20041;-67
2021/03/19 03:58:40;;;;;;;36.25;14.82;;;2.70;99.90;;;;;;5035357;28;20052;-67
2021/03/19 04:01:06;;;;;;;35.65;15.57;;;2.70;99.90;;;;;;5018665;28;20144;-67
2021/03/19 04:03:32;;;;;;;38.97;15.32;;;2.70;99.90;;;;;;5018226;28;20030;-67
2021/03/19 04:05:58;;;;;;;38.63;16.25;;;2.70;99.90;;;;;;5017971;28;20029;-67
2021/03/19 04:08:27;;;;;;;41.10;16.27;;;2.70;99.90;;;;;;5036072;28;20060;-67
2021/03/19 04:10:56;;;;;;;42.50;16.73;;;2.70;99.90;;;;;;5035713;28;20056;-68
2021/03/19 04:13:24;;;;;;;48.75;17.10;;;2.70;99.90;;;;;;5018450;28;20048;-67
2021/03/19 04:15:51;;;;;;;38.33;16.00;;;2.80;99.90;;;;;;5035968;28;20025;-67
2021/03/19 04:18:20;;;;;;;41.50;16.10;;;2.80;99.90;;;;;;5035706;28;20470;-67
2021/03/19 04:20:56;;;;;;;41.72;17.23;;;2.70;99.90;;;;;;5035853;28;20037;-67
2021/03/19 04:23:23;;;;;;;37.45;15.65;;;2.70;99.90;;;;;;5018318;28;20033;-67
2021/03/19 04:25:51;;;;;;;35.28;15.82;;;2.80;99.90;;;;;;5035724;28;20037;-67
2021/03/19 04:28:22;;;;;;;43.03;16.52;;;2.80;99.90;;;;;;5035614;28;20052;-67
2021/03/19 04:30:48;;;;;;;36.88;16.08;;;2.70;99.90;;;;;;5035556;28;20056;-66
2021/03/19 04:33:19;;;;;;;41.08;14.30;;;2.70;99.90;;;;;;5035306;28;20125;-67
2021/03/19 04:35:47;;;;;;;;;;;2.70;99.90;;;;;;5035566;28;20041;-67
2021/03/19 04:38:16;;;;;;;36.35;14.93;;;2.80;99.90;;;;;;5035018;28;19920;-68
2021/03/19 04:40:45;;;;;;;42.85;15.93;;;2.80;99.90;;;;;;5018230;28;20029;-67
2021/03/19 04:43:12;;;;;;;42.75;16.17;;;2.80;99.90;;;;;;5035342;28;20026;-67
2021/03/19 04:45:41;;;;;;;41.85;15.88;;;2.80;99.90;;;;;;5017735;28;20041;-67
2021/03/19 04:48:07;;;;;;;37.33;16.15;;;3.00;99.90;;;;;;4986147;28;20092;-67
2021/03/19 04:50:34;;;;;;;40.83;16.95;;;2.90;99.90;;;;;;5035270;28;20413;-67
2021/03/19 04:53:04;;;;;;;42.75;17.08;;;2.90;99.90;;;;;;5010159;28;20044;-67
2021/03/19 04:55:30;;;;;;;41.25;16.00;;;2.80;99.90;;;;;;5013910;28;20036;-68
2021/03/19 04:57:56;;;;;;;42.20;17.42;;;2.90;99.90;;;;;;5014910;28;20041;-68
2021/03/19 05:00:23;;;;;;;35.95;17.08;;;3.00;99.90;;;;;;5020298;28;20021;-68
2021/03/19 05:02:51;;;;;;;40.60;17.67;;;3.00;99.90;;;;;;5034823;28;20025;-68
2021/03/19 05:05:29;;;;;;;36.63;16.20;;;3.10;99.90;;;;;;5017335;28;20382;-67
2021/03/19 05:07:56;;;;;;;45.63;16.67;;;3.10;99.90;;;;;;5034648;28;20521;-69
2021/03/19 05:10:27;;;;;;;39.13;16.02;;;3.10;99.90;;;;;;5017190;28;20141;-69
2021/03/19 05:12:54;;;;;;;43.50;18.30;;;3.10;99.90;;;;;;5034980;28;20030;-71
2021/03/19 05:15:23;;;;;;;43.25;16.73;;;3.10;99.90;;;;;;5016646;28;20141;-71
2021/03/19 05:17:48;;;;;;;42.28;16.55;;;2.90;99.90;;;;;;5029494;28;20034;-71
2021/03/19 05:20:19;;;;;;;42.67;17.90;;;3.00;99.90;;;;;;5013174;28;20053;-68
2021/03/19 05:22:45;;;;;;;43.55;16.98;;;3.00;99.90;;;;;;5014542;28;20034;-67
2021/03/19 05:25:17;;;;;;;46.78;17.92;;;3.00;99.90;;;;;;5014160;28;20079;-67
2021/03/19 05:27:46;;;;;;;39.65;17.23;;;3.00;99.90;;;;;;5014434;28;20030;-67
2021/03/19 05:30:14;;;;;;;45.13;19.15;;;2.90;99.90;;;;;;4981213;28;20026;-67
2021/03/19 05:32:40;;;;;;;45.13;18.38;;;3.00;99.90;;;;;;5014505;28;20054;-68
2021/03/19 05:35:09;;;;;;;42.90;17.67;;;3.00;99.90;;;;;;5014078;28;20483;-67
2021/03/19 05:37:36;;;;;;;50.33;19.13;;;2.90;99.90;;;;;;5014531;28;20544;-68
2021/03/19 05:40:06;;;;;;;44.95;18.77;;;2.90;99.90;;;;;;5014326;28;20053;-66
2021/03/19 05:42:36;;;;;;;51.88;19.85;;;2.90;99.90;;;;;;4996616;28;20038;-67
2021/03/19 05:45:24;;;;;;;54.78;19.33;;;3.00;99.90;;;;;;5014073;28;20046;-68
2021/03/19 05:47:56;;;;;;;51.83;19.05;;;3.00;99.90;;;;;;5013986;28;20127;-68
2021/03/19 05:50:28;;;;;;;51.20;20.20;;;2.90;99.90;;;;;;4996406;28;20065;-64
2021/03/19 05:52:55;;;;;;;52.65;20.98;;;2.80;99.90;;;;;;4996849;28;20096;-67
2021/03/19 05:55:25;;;;;;;52.95;19.83;;;2.90;99.90;;;;;;5013807;28;20045;-67
2021/03/19 05:57:58;;;;;;;57.50;20.23;;;3.00;99.90;;;;;;5014167;28;20029;-66
2021/03/19 06:00:27;;;;;;;56.83;21.38;;;3.00;99.90;;;;;;4996436;28;20037;-68
2021/03/19 06:02:53;;;;;;;60.15;19.92;;;3.00;99.90;;;;;;5014111;28;20088;-66
2021/03/19 06:05:27;;;;;;;55.83;20.33;;;3.00;99.90;;;;;;5013767;28;20105;-67
2021/03/19 06:08:00;;;;;;;52.47;20.27;;;3.00;99.90;;;;;;5013773;28;20022;-67
2021/03/19 06:10:43;;;;;;;58.80;21.92;;;3.10;99.90;;;;;;4996606;28;20068;-67
2021/03/19 06:13:23;;;;;;;46.65;19.58;;;3.20;99.90;;;;;;4996771;28;20038;-67
2021/03/19 06:15:52;;;;;;;54.10;21.77;;;3.30;99.90;;;;;;5002982;28;20225;-67
2021/03/19 06:18:44;;;;;;;63.55;20.83;;;3.30;99.90;;;;;;5012151;28;20393;-66
2021/03/19 06:21:10;;;;;;;54.70;19.65;;;3.30;99.90;;;;;;5001919;28;20085;-68
2021/03/19 06:23:41;;;;;;;55.63;22.25;;;3.30;99.90;;;;;;5013701;28;20034;-69
2021/03/19 06:26:25;;;;;;;51.25;21.13;;;3.40;99.90;;;;;;5013458;28;20049;-69
2021/03/19 06:29:25;;;;;;;49.55;20.25;;;3.50;99.90;;;;;;5006790;28;20136;-68
2021/03/19 06:32:15;;;;;;;48.15;20.50;;;3.60;99.90;;;;;;5013053;28;20495;-68
2021/03/19 06:35:16;;;;;;;47.10;19.90;;;3.70;99.90;;;;;;5013402;28;20033;-68
2021/03/19 06:37:48;;;;;;;53.65;22.17;;;3.60;99.90;;;;;;5004904;28;20061;-67
2021/03/19 06:40:40;;;;;;;;;;;3.50;99.90;;;;;;5012329;28;20042;-68
2021/03/19 06:43:29;;;;;;;45.25;19.63;;;3.60;99.90;;;;;;5013038;28;19913;-68
2021/03/19 06:46:38;;;;;;;48.67;20.42;;;3.50;99.90;;;;;;5013339;28;20042;-68
2021/03/19 06:49:07;;;;;;;51.05;21.48;;;3.50;99.90;;;;;;5002024;28;20042;-69
2021/03/19 06:51:37;;;;;;;49.95;20.75;;;3.70;99.90;;;;;;5013104;28;20041;-68
2021/03/19 06:54:15;;;;;;;52.83;20.88;;;3.60;99.90;;;;;;5015289;28;20392;-69
2021/03/19 06:57:08;;;;;;;48.55;20.90;;;3.70;99.90;;;;;;4995476;28;20037;-68
2021/03/19 06:59:48;;;;;;;50.42;21.08;;;3.70;99.90;;;;;;4996550;28;20030;-69
2021/03/19 07:02:58;;;;;;;44.85;18.23;;;3.60;99.90;;;;;;5012905;28;20079;-69
2021/03/19 07:06:09;;;;;;;47.58;21.58;;;3.60;99.90;;;;;;5012876;28;20037;-68
2021/03/19 07:09:11;;;;;;;44.43;20.90;;;3.50;99.90;;;;;;5012965;28;20033;-69
2021/03/19 07:12:05;;;;;;;50.40;21.02;;;3.50;99.90;;;;;;4995248;28;20030;-68
2021/03/19 07:14:54;;;;;;;50.70;20.17;;;3.40;99.90;;;;;;5012854;28;20137;-68
2021/03/19 07:17:44;;;;;;;49.78;21.13;;;3.40;99.90;;;;;;4996185;28;20022;-68
2021/03/19 07:20:37;;;;;;;47.50;20.27;;;3.40;99.90;;;;;;5012504;28;20037;-68
2021/03/19 07:23:19;;;;;;;51.03;20.42;;;3.30;99.90;;;;;;5012571;28;20025;-68
2021/03/19 07:26:16;;;;;;;49.10;19.85;;;3.40;99.90;;;;;;5012430;28;20045;-68
2021/03/19 07:29:27;;;;;;;42.95;19.60;;;3.30;99.90;;;;;;4994338;28;20487;-68
2021/03/19 07:32:07;;;;;;;39.83;18.02;;;3.50;99.90;;;;;;4996692;28;20119;-69
2021/03/19 07:34:59;;;;;;;41.85;17.58;;;3.50;99.90;;;;;;4995046;28;20030;-68
2021/03/19 07:38:00;;;;;;;;;;;3.50;99.90;;;;;;4991586;28;20046;-68
2021/03/19 07:40:55;;;;;;;44.85;18.50;;;3.60;99.90;;;;;;4992832;28;20367;-68
2021/03/19 07:43:43;;;;;;;37.13;16.83;;;3.60;99.90;;;;;;4991706;28;20038;-68
2021/03/19 07:47:02;;;;;;;38.58;17.60;;;3.60;99.90;;;;;;4992288;28;20491;-76
2021/03/19 07:50:02;;;;;;;38.25;16.80;;;3.50;99.90;;;;;;4992577;28;20446;-68
2021/03/19 07:53:27;;;;;;;34.42;15.88;;;3.60;99.90;;;;;;4991557;28;20034;-66
2021/03/19 07:56:29;;;;;;;35.88;15.77;;;3.80;99.90;;;;;;5005088;28;20031;-66
2021/03/19 07:59:36;;;;;;;30.83;14.88;;;3.80;99.90;;;;;;4922055;28;20052;-67
2021/03/19 08:02:37;;;;;;;32.75;15.23;;;4.00;99.90;;;;;;4974023;28;20100;-68
2021/03/19 08:05:42;;;;;;;29.05;15.52;;;4.00;99.90;;;;;;4992356;28;20038;-67
2021/03/19 08:08:39;;;;;;;31.38;15.00;;;4.00;99.90;;;;;;4987748;28;20129;-68
2021/03/19 08:11:26;;;;;;;30.73;14.38;;;4.10;99.90;;;;;;4992020;28;20064;-67
2021/03/19 08:14:22;;;;;;;32.08;13.82;;;4.00;99.90;;;;;;4990771;28;20525;-67
2021/03/19 08:17:16;;;;;;;29.20;13.35;;;4.00;99.90;;;;;;4957971;28;20058;-67
2021/03/19 08:19:53;;;;;;;28.15;13.25;;;3.90;99.90;;;;;;4971590;28;20505;-68
2021/03/19 08:22:52;;;;;;;33.38;14.45;;;4.00;99.90;;;;;;4973676;28;20066;-68
2021/03/19 08:25:40;;;;;;;25.55;11.25;;;4.00;99.90;;;;;;4991478;28;20117;-69
2021/03/19 08:28:29;;;;;;;24.50;11.68;;;4.10;99.90;;;;;;4992448;28;20459;-67
2021/03/19 08:31:45;;;;;;;27.20;12.55;;;4.10;99.90;;;;;;4992572;28;20470;-68
2021/03/19 08:35:00;;;;;;;23.38;11.77;;;4.20;99.90;;;;;;4974890;28;20034;-67
2021/03/19 08:38:01;;;;;;;24.23;10.75;;;4.10;99.90;;;;;;4998723;28;20058;-68
2021/03/19 08:40:35;;;;;;;26.10;11.75;;;4.20;99.90;;;;;;4976354;28;20042;-68
2021/03/19 08:43:11;;;;;;;28.35;12.18;;;4.40;99.90;;;;;;4992641;28;20097;-67
2021/03/19 08:45:37;;;;;;;23.63;11.73;;;4.70;99.90;;;;;;4994789;28;20085;-67
2021/03/19 08:48:11;;;;;;;19.80;9.07;;;4.90;99.90;;;;;;4995681;28;20031;-67
2021/03/19 08:50:41;;;;;;;19.05;8.70;;;4.80;99.90;;;;;;4994559;28;20038;-67
2021/03/19 08:53:22;;;;;;;19.33;9.05;;;4.70;99.90;;;;;;4978300;28;20037;-67
2021/03/19 08:56:05;;;;;;;19.17;7.90;;;4.40;99.90;;;;;;5000742;28;20164;-67
2021/03/19 08:58:31;;;;;;;15.05;7.97;;;4.30;99.90;;;;;;5015061;28;20403;-68
2021/03/19 09:01:06;;;;;;;18.13;8.73;;;4.30;99.90;;;;;;5015171;28;20034;-68
2021/03/19 09:03:41;;;;;;;17.88;9.15;;;4.40;99.90;;;;;;5014898;28;20030;-67
2021/03/19 09:06:10;;;;;;;19.52;9.48;;;4.50;99.90;;;;;;5015056;28;20509;-67
2021/03/19 09:08:45;;;;;;;22.00;10.70;;;4.40;99.90;;;;;;5014503;28;20038;-67
2021/03/19 09:11:18;;;;;;;18.35;8.13;;;4.40;99.90;;;;;;5014942;28;20045;-67
2021/03/19 09:13:59;;;;;;;18.67;8.60;;;4.30;99.90;;;;;;5013699;28;20529;-68
2021/03/19 09:16:47;;;;;;;17.35;8.60;;;4.20;99.90;;;;;;5014925;28;20099;-67
2021/03/19 09:19:31;;;;;;;16.95;8.20;;;4.50;99.90;;;;;;5014640;28;20044;-67
2021/03/19 09:22:22;;;;;;;18.65;8.73;;;4.60;99.90;;;;;;5014690;28;20541;-67
2021/03/19 09:27:41;;;;;;;18.65;8.88;;;4.40;99.90;;;;;;5014357;28;20033;-66
2021/03/19 09:30:39;;;;;;;19.83;8.50;;;4.50;99.90;;;;;;5014586;28;20038;-66
2021/03/19 09:33:31;;;;;;;18.38;9.60;;;4.70;99.90;;;;;;5013083;28;20503;-67
2021/03/19 09:35:57;;;;;;;19.52;9.00;;;4.70;99.90;;;;;;5017600;28;20045;-67
2021/03/19 09:38:22;;;;;;;20.67;8.98;;;4.80;99.90;;;;;;5034056;28;20048;-67
2021/03/19 09:40:51;;;;;;;18.60;8.23;;;4.90;99.90;;;;;;5034250;28;20038;-68
2021/03/19 09:43:37;;;;;;;17.67;8.18;;;4.80;99.90;;;;;;5034016;28;20132;-68
2021/03/19 09:46:29;;;;;;;19.50;9.55;;;4.80;99.90;;;;;;5034119;28;20092;-68
2021/03/19 09:49:27;;;;;;;16.50;8.23;;;4.90;99.90;;;;;;5016107;28;20463;-67
2021/03/19 09:51:53;;;;;;;21.75;8.90;;;5.10;99.90;;;;;;5009359;28;20042;-66
2021/03/19 09:54:29;;;;;;;19.98;9.35;;;5.20;99.90;;;;;;5015574;28;20132;-68
2021/03/19 09:57:03;;;;;;;18.30;8.40;;;5.10;99.90;;;;;;5033477;28;20364;-68
2021/03/19 09:59:36;;;;;;;16.35;7.90;;;5.00;99.90;;;;;;5017190;28;20038;-68
2021/03/19 10:02:33;;;;;;;20.08;8.30;;;5.00;99.90;;;;;;5016527;28;20036;-67
2021/03/19 10:05:14;;;;;;;16.33;7.18;;;4.60;99.90;;;;;;5033610;28;20029;-68
2021/03/19 10:07:51;;;;;;;15.93;8.00;;;4.80;99.90;;;;;;5016580;28;20441;-68
2021/03/19 10:10:36;;;;;;;19.35;7.70;;;4.80;99.90;;;;;;5016819;28;20045;-68
2021/03/19 10:13:16;;;;;;;15.73;7.07;;;5.00;99.90;;;;;;5033541;28;20040;-68
2021/03/19 10:15:49;;;;;;;13.88;7.45;;;5.20;99.90;;;;;;5033572;28;20045;-67
2021/03/19 10:18:40;;;;;;;14.95;6.95;;;5.20;99.90;;;;;;5015734;28;20470;-66
2021/03/19 10:21:13;;;;;;;13.05;6.88;;;5.30;99.90;;;;;;5033227;28;20045;-67
2021/03/19 10:23:43;;;;;;;15.50;8.00;;;5.00;99.90;;;;;;5016096;28;20028;-68
2021/03/19 10:26:36;;;;;;;13.48;7.18;;;4.90;99.90;;;;;;5033420;28;20044;-68
2021/03/19 10:29:21;;;;;;;12.23;5.65;;;4.80;99.90;;;;;;5033586;28;20517;-68
2021/03/19 10:32:01;;;;;;;13.57;5.70;;;4.70;99.90;;;;;;5016593;28;20021;-66
2021/03/19 10:34:56;;;;;;;11.93;5.28;;;4.60;99.90;;;;;;5015751;28;20394;-69
2021/03/19 10:37:44;;;;;;;14.65;5.57;;;4.60;99.90;;;;;;5032584;28;20060;-68
2021/03/19 10:40:37;;;;;;;9.15;4.97;;;4.90;99.90;;;;;;5032996;28;20116;-67
2021/03/19 10:43:18;;;;;;;10.55;5.10;;;4.90;99.90;;;;;;5016550;28;20032;-68
2021/03/19 10:46:21;;;;;;;11.95;5.82;;;5.00;99.90;;;;;;5032749;28;20103;-66
2021/03/19 10:48:57;;;;;;;12.60;6.57;;;5.10;99.90;;;;;;4982373;28;20056;-67
2021/03/19 10:52:13;;;;;;;17.00;7.72;;;5.20;99.90;;;;;;5015830;28;20470;-65
2021/03/19 10:54:43;;;;;;;10.30;5.70;;;5.80;99.90;;;;;;5032536;28;20584;-66
2021/03/19 10:57:24;;;;;;;13.18;6.20;;;6.10;99.90;;;;;;4982516;28;20037;-66
2021/03/19 10:59:52;;;;;;;12.90;6.43;;;5.70;99.90;;;;;;4999549;28;20033;-66
2021/03/19 11:02:30;;;;;;;11.13;6.05;;;6.40;99.90;;;;;;5015244;28;20541;-66
2021/03/19 11:04:56;;;;;;;16.83;8.13;;;7.20;99.90;;;;;;5029441;28;20040;-64
2021/03/19 11:07:28;;;;;;;12.13;6.20;;;7.60;99.90;;;;;;5032368;28;20030;-68
2021/03/19 11:10:47;;;;;;;11.88;5.80;;;8.10;99.90;;;;;;5032277;28;20022;-74
2021/03/19 11:13:13;;;;;;;12.30;5.93;;;7.40;99.90;;;;;;5018755;28;20501;-66
2021/03/19 11:15:43;;;;;;;11.73;5.68;;;7.60;99.90;;;;;;5032338;28;20068;-67
2021/03/19 11:18:36;;;;;;;11.83;6.17;;;7.20;99.90;;;;;;5032482;28;20033;-66
2021/03/19 11:21:08;;;;;;;9.07;5.45;;;7.30;99.90;;;;;;5032324;28;20121;-66
2021/03/19 11:23:49;;;;;;;12.77;4.57;;;6.80;99.90;;;;;;5032453;28;20053;-67
2021/03/19 11:26:28;;;;;;;9.80;4.78;;;6.50;99.90;;;;;;5032315;28;20116;-67
2021/03/19 11:29:12;;;;;;;11.00;4.35;;;6.30;99.90;;;;;;5032465;28;20048;-66
2021/03/19 11:32:12;;;;;;;9.52;4.55;;;6.40;99.90;;;;;;5031855;28;20025;-67
2021/03/19 11:34:40;;;;;;;11.00;4.63;;;6.60;99.90;;;;;;5031838;28;20029;-67
2021/03/19 11:37:27;;;;;;;8.40;4.32;;;6.60;99.90;;;;;;5014402;28;20140;-67
2021/03/19 11:39:57;;;;;;;7.68;4.40;;;6.50;99.90;;;;;;5032014;28;20041;-67
2021/03/19 11:42:35;;;;;;;9.98;4.35;;;6.50;99.90;;;;;;5031708;28;20502;-68
2021/03/19 11:45:10;;;;;;;8.45;4.88;;;6.70;99.90;;;;;;5032092;28;20037;-67
2021/03/19 11:47:40;;;;;;;8.88;4.05;;;6.80;99.90;;;;;;5031622;28;20402;-67
2021/03/19 11:50:21;;;;;;;7.72;4.03;;;6.80;99.90;;;;;;5014491;28;20474;-67
2021/03/19 11:52:51;;;;;;;7.32;3.53;;;6.90;99.10;;;;;;5031547;28;20064;-67
2021/03/19 11:55:30;;;;;;;7.70;3.83;;;6.80;99.90;;;;;;5032048;28;20523;-67
2021/03/19 11:57:56;;;;;;;7.90;4.20;;;6.70;99.90;;;;;;5014064;28;20057;-66
2021/03/19 12:00:29;;;;;;;11.90;5.35;;;6.50;99.90;;;;;;5031622;28;20512;-75
2021/03/19 12:03:01;;;;;;;13.63;5.68;;;6.60;99.90;;;;;;5014370;28;20041;-67
2021/03/19 12:05:29;;;;;;;10.57;4.75;;;6.50;99.90;;;;;;5031778;28;20390;-66
2021/03/19 12:07:55;;;;;;;9.52;4.90;;;6.70;99.90;;;;;;5032015;28;20026;-66
2021/03/19 12:10:27;;;;;;;11.05;4.90;;;6.80;99.90;;;;;;5031706;28;20038;-67
2021/03/19 12:12:58;;;;;;;9.80;4.65;;;7.00;99.90;;;;;;5031657;28;20140;-67
2021/03/19 12:15:26;;;;;;;9.60;4.78;;;6.50;99.90;;;;;;5031776;28;20026;-66
2021/03/19 12:17:52;;;;;;;10.40;4.70;;;6.70;99.90;;;;;;5032141;28;20087;-67
2021/03/19 12:20:18;;;;;;;12.38;5.05;;;6.60;99.90;;;;;;5035443;28;20124;-67
2021/03/19 12:22:46;;;;;;;9.98;5.10;;;6.50;99.90;;;;;;5035228;28;20021;-67
2021/03/19 12:25:36;;;;;;;9.20;4.78;;;6.40;99.90;;;;;;5017724;28;20047;-68
2021/03/19 12:28:02;;;;;;;9.63;4.57;;;6.50;99.90;;;;;;5035274;28;20087;-68
2021/03/19 12:30:28;;;;;;;10.57;4.95;;;6.60;99.90;;;;;;5035000;28;20071;-68
2021/03/19 12:32:56;;;;;;;8.75;4.30;;;7.20;99.90;;;;;;5035085;28;20057;-67
2021/03/19 12:35:26;;;;;;;10.05;4.95;;;8.00;98.90;;;;;;5035258;28;20041;-67
2021/03/19 12:37:52;;;;;;;9.60;4.53;;;8.00;98.70;;;;;;5035323;28;20042;-67
2021/03/19 12:40:21;;;;;;;8.68;4.07;;;8.40;96.50;;;;;;5017633;28;20045;-66
2021/03/19 12:42:49;;;;;;;9.85;5.05;;;8.40;97.40;;;;;;5035508;28;20033;-66
2021/03/19 12:45:21;;;;;;;9.35;4.55;;;8.30;96.80;;;;;;5017720;28;20493;-65
2021/03/19 12:47:47;;;;;;;7.90;4.03;;;7.60;99.90;;;;;;5035049;28;20029;-66
2021/03/19 12:50:13;;;;;;;10.27;4.22;;;6.20;99.90;;;;;;5034869;28;20083;-66
2021/03/19 12:52:39;;;;;;;7.65;3.70;;;6.10;99.90;;;;;;5034574;28;20033;-67
2021/03/19 12:55:07;;;;;;;8.25;4.15;;;5.60;99.90;;;;;;5035042;28;20026;-66
2021/03/19 12:57:33;;;;;;;8.73;3.35;;;5.90;99.90;;;;;;5034720;28;20026;-68
2021/03/19 12:59:58;;;;;;;8.00;4.05;;;6.00;99.90;;;;;;5034532;28;20033;-67
2021/03/19 13:02:24;;;;;;;5.78;3.22;;;6.80;99.90;;;;;;5012310;28;20037;-67
2021/03/19 13:04:50;;;;;;;7.75;3.80;;;8.70;99.00;;;;;;5014585;28;20034;-67
2021/03/19 13:07:16;;;;;;;8.45;3.58;;;9.30;97.20;;;;;;5014812;28;20041;-66
2021/03/19 13:09:41;;;;;;;7.35;4.10;;;9.40;97.90;;;;;;5014553;28;20439;-67
2021/03/19 13:12:08;;;;;;;8.43;4.28;;;8.80;97.90;;;;;;4997172;28;20045;-67
2021/03/19 13:14:33;;;;;;;7.72;4.05;;;8.10;99.90;;;;;;5014871;28;20088;-67
2021/03/19 13:17:01;;;;;;;8.05;4.35;;;8.10;99.60;;;;;;5014810;28;20057;-67
2021/03/19 13:19:28;;;;;;;8.00;3.70;;;8.60;97.70;;;;;;5014466;28;20030;-67
2021/03/19 13:21:55;;;;;;;8.32;3.38;;;8.30;95.70;;;;;;5013130;28;20112;-67
2021/03/19 13:24:21;;;;;;;7.43;3.60;;;8.90;95.20;;;;;;5013601;28;20065;-67
2021/03/19 13:26:48;;;;;;;8.13;4.25;;;8.50;94.90;;;;;;5013269;28;20034;-67
2021/03/19 13:29:14;;;;;;;8.27;4.38;;;8.90;94.10;;;;;;5013987;28;20053;-66
2021/03/19 13:31:41;;;;;;;7.53;3.35;;;8.60;95.20;;;;;;5012619;28;20080;-67
2021/03/19 13:34:10;;;;;;;8.02;3.95;;;10.60;91.70;;;;;;5014466;28;20061;-66
2021/03/19 13:36:38;;;;;;;5.13;3.15;;;9.80;92.70;;;;;;4996473;28;20104;-67
2021/03/19 13:39:07;;;;;;;6.18;3.00;;;9.50;96.70;;;;;;5014637;28;20037;-66